createdAt,value
2023-01-23T00:01:28.451Z,28.80
2023-01-23T00:03:56.174Z,31.77
2023-01-23T00:06:23.812Z,24.33
2023-01-23T00:08:51.471Z,22.65
2023-01-23T00:11:20.512Z,23.05
2023-01-23T00:13:47.954Z,26.75
2023-01-23T00:16:16.276Z,26.35
2023-01-23T00:18:43.610Z,28.08
2023-01-23T00:21:11.899Z,26.20
2023-01-23T00:23:39.410Z,21.33
2023-01-23T00:26:07.603Z,24.00
2023-01-23T00:28:35.173Z,24.38
2023-01-23T00:31:10.223Z,21.98
2023-01-23T00:33:37.374Z,23.40
2023-01-23T00:36:04.668Z,25.30
2023-01-23T00:38:31.914Z,26.63
2023-01-23T00:40:59.042Z,22.63
2023-01-23T00:43:26.460Z,25.83
2023-01-23T00:45:53.569Z,22.38
2023-01-23T00:48:20.716Z,27.52
2023-01-23T00:50:48.570Z,20.75
2023-01-23T00:53:15.904Z,25.10
2023-01-23T00:55:43.299Z,25.33
2023-01-23T00:58:10.465Z,23.50
2023-01-23T01:00:38.206Z,19.67
2023-01-23T01:03:05.492Z,21.08
2023-01-23T01:05:32.859Z,19.65
2023-01-23T01:08:00.134Z,27.00
2023-01-23T01:10:29.569Z,21.10
2023-01-23T01:12:57.400Z,24.73
2023-01-23T01:15:25.058Z,22.98
2023-01-23T01:17:54.242Z,22.13
2023-01-23T01:20:26.090Z,25.45
2023-01-23T01:22:53.844Z,24.33
2023-01-23T01:25:21.020Z,23.27
2023-01-23T01:27:48.568Z,21.15
2023-01-23T01:30:16.701Z,25.58
2023-01-23T01:32:44.285Z,25.42
2023-01-23T01:35:11.927Z,24.17
2023-01-23T01:37:39.908Z,26.77
2023-01-23T01:40:08.430Z,24.60
2023-01-23T01:42:43.175Z,26.15
2023-01-23T01:45:29.115Z,27.00
2023-01-23T01:47:56.261Z,27.08
2023-01-23T01:50:23.403Z,27.55
2023-01-23T01:52:50.811Z,24.45
2023-01-23T01:55:18.151Z,23.88
2023-01-23T01:57:48.897Z,22.92
2023-01-23T02:00:18.628Z,20.80
2023-01-23T02:02:49.526Z,21.60
2023-01-23T02:05:19.536Z,21.27
2023-01-23T02:08:04.733Z,20.27
2023-01-23T02:10:36.295Z,24.08
2023-01-23T02:13:22.295Z,23.42
2023-01-23T02:15:50.079Z,24.13
2023-01-23T02:18:17.330Z,25.17
2023-01-23T02:20:44.698Z,23.25
2023-01-23T02:23:36.745Z,20.20
2023-01-23T02:26:08.505Z,20.70
2023-01-23T02:28:40.151Z,24.05
2023-01-23T02:31:07.919Z,24.92
2023-01-23T02:33:35.109Z,22.50
2023-01-23T02:36:05.358Z,20.55
2023-01-23T02:38:37.607Z,20.95
2023-01-23T02:41:06.464Z,20.17
2023-01-23T02:43:38.864Z,20.60
2023-01-23T02:46:07.188Z,22.02
2023-01-23T02:48:34.567Z,20.02
2023-01-23T02:51:01.711Z,19.80
2023-01-23T02:53:29.477Z,18.38
2023-01-23T02:55:58.798Z,20.05
2023-01-23T02:58:45.131Z,18.42
2023-01-23T03:01:12.452Z,25.20
2023-01-23T03:03:42.295Z,21.88
2023-01-23T03:06:09.593Z,18.40
2023-01-23T03:08:47.259Z,19.80
2023-01-23T03:11:15.429Z,20.95
2023-01-23T03:13:42.643Z,18.77
2023-01-23T03:16:10.100Z,20.70
2023-01-23T03:18:52.942Z,20.35
2023-01-23T03:21:21.411Z,18.33
2023-01-23T03:23:48.526Z,18.50
2023-01-23T03:26:16.080Z,19.88
2023-01-23T03:29:01.773Z,18.90
2023-01-23T03:31:29.110Z,19.80
2023-01-23T03:33:56.371Z,19.65
2023-01-23T03:36:23.556Z,20.90
2023-01-23T03:39:09.239Z,18.77
2023-01-23T03:41:38.264Z,17.80
2023-01-23T03:44:05.531Z,19.83
2023-01-23T03:46:32.704Z,19.00
2023-01-23T03:48:59.874Z,17.80
2023-01-23T03:51:27.089Z,19.42
2023-01-23T03:53:54.254Z,19.17
2023-01-23T03:56:21.353Z,20.42
2023-01-23T03:58:48.481Z,20.52
2023-01-23T04:01:15.731Z,17.83
2023-01-23T04:03:42.891Z,18.73
2023-01-23T04:06:10.755Z,21.38
2023-01-23T04:08:37.952Z,18.33
2023-01-23T04:11:05.585Z,19.35
2023-01-23T04:13:32.904Z,18.38
2023-01-23T04:16:00.565Z,18.83
2023-01-23T04:18:28.302Z,21.40
2023-01-23T04:20:56.059Z,15.15
2023-01-23T04:23:23.692Z,20.05
2023-01-23T04:25:51.456Z,19.13
2023-01-23T04:28:19.038Z,20.10
2023-01-23T04:30:46.522Z,19.00
2023-01-23T04:33:13.937Z,20.73
2023-01-23T04:35:41.120Z,18.75
2023-01-23T04:38:08.265Z,17.40
2023-01-23T04:40:35.407Z,20.08
2023-01-23T04:43:02.617Z,19.95
2023-01-23T04:45:29.762Z,19.23
2023-01-23T04:47:56.929Z,18.17
2023-01-23T04:50:24.082Z,19.63
2023-01-23T04:52:51.284Z,18.05
2023-01-23T04:55:18.537Z,15.32
2023-01-23T04:57:45.703Z,19.63
2023-01-23T05:00:13.866Z,17.60
2023-01-23T05:02:41.220Z,17.80
2023-01-23T05:05:08.592Z,15.95
2023-01-23T05:07:35.807Z,15.65
2023-01-23T05:10:02.948Z,17.52
2023-01-23T05:12:30.172Z,16.40
2023-01-23T05:14:57.311Z,18.00
2023-01-23T05:17:24.651Z,18.27
2023-01-23T05:19:51.876Z,16.45
2023-01-23T05:22:19.005Z,19.15
2023-01-23T05:24:46.223Z,20.50
2023-01-23T05:27:13.441Z,19.67
2023-01-23T05:29:40.605Z,19.92
2023-01-23T05:32:07.833Z,17.23
2023-01-23T05:34:34.976Z,20.05
2023-01-23T05:37:02.150Z,18.48
2023-01-23T05:39:32.009Z,18.33
2023-01-23T05:41:59.205Z,21.33
2023-01-23T05:44:26.410Z,21.33
2023-01-23T05:46:53.721Z,23.38
2023-01-23T05:49:20.940Z,19.90
2023-01-23T05:51:48.141Z,19.30
2023-01-23T05:54:15.342Z,23.85
2023-01-23T05:56:42.437Z,24.77
2023-01-23T05:59:10.075Z,31.42
2023-01-23T06:01:37.168Z,31.23
2023-01-23T06:04:04.361Z,23.90
2023-01-23T06:06:31.498Z,21.83
2023-01-23T06:09:00.238Z,22.25
2023-01-23T06:11:27.352Z,23.55
2023-01-23T06:13:54.488Z,23.85
2023-01-23T06:16:21.721Z,21.58
2023-01-23T06:18:48.909Z,21.08
2023-01-23T06:21:18.241Z,20.17
2023-01-23T06:23:45.965Z,20.88
2023-01-23T06:26:13.382Z,21.50
2023-01-23T06:28:41.146Z,19.25
2023-01-23T06:31:10.354Z,21.10
2023-01-23T06:33:38.998Z,20.15
2023-01-23T06:36:06.745Z,19.80
2023-01-23T06:38:34.313Z,20.63
2023-01-23T06:41:01.774Z,21.50
2023-01-23T06:43:29.007Z,24.23
2023-01-23T06:45:56.306Z,25.88
2023-01-23T06:48:23.764Z,19.40
2023-01-23T06:50:50.995Z,21.25
2023-01-23T06:53:18.707Z,18.13
2023-01-23T06:55:46.007Z,20.15
2023-01-23T06:58:13.235Z,21.23
2023-01-23T07:00:40.661Z,21.75
2023-01-23T07:03:07.858Z,20.42
2023-01-23T07:05:39.469Z,20.42
2023-01-23T07:08:07.087Z,21.58
2023-01-23T07:10:34.251Z,21.00
2023-01-23T07:13:01.382Z,20.48
2023-01-23T07:15:28.517Z,19.92
2023-01-23T07:17:55.668Z,22.08
2023-01-23T07:20:23.187Z,20.70
2023-01-23T07:22:51.089Z,20.48
2023-01-23T07:25:18.292Z,19.92
2023-01-23T07:27:45.423Z,21.10
2023-01-23T07:30:12.776Z,30.83
2023-01-23T07:32:39.945Z,42.90
2023-01-23T07:35:07.452Z,45.38
2023-01-23T07:37:35.116Z,39.55
2023-01-23T07:40:02.234Z,55.70
2023-01-23T07:42:29.356Z,42.92
2023-01-23T07:44:56.537Z,40.72
2023-01-23T07:47:23.635Z,68.13
2023-01-23T07:49:50.857Z,66.18
2023-01-23T07:52:17.992Z,64.90
2023-01-23T07:54:45.120Z,80.32
2023-01-23T07:57:12.238Z,80.53
2023-01-23T07:59:39.287Z,80.40
2023-01-23T08:02:06.619Z,81.75
2023-01-23T08:04:51.971Z,56.10
2023-01-23T10:41:20.606Z,718.83
2023-01-23T10:43:58.552Z,716.28
2023-01-23T10:46:46.813Z,847.40
2023-01-23T10:49:44.498Z,715.55
2023-01-23T10:52:33.127Z,852.67
2023-01-23T10:58:25.331Z,849.83
2023-01-23T11:03:39.809Z,849.10
2023-01-23T11:06:08.814Z,728.53
2023-01-23T11:08:37.212Z,854.67
2023-01-23T11:11:16.954Z,726.38
2023-01-23T11:13:48.143Z,726.30
2023-01-23T11:16:16.706Z,857.42
2023-01-23T11:18:50.469Z,851.50
2023-01-23T11:21:42.702Z,726.40
2023-01-23T11:27:24.010Z,729.67
2023-01-23T11:30:21.115Z,846.20
2023-01-23T11:33:09.399Z,726.50
2023-01-23T11:35:58.884Z,725.05
2023-01-23T11:38:37.671Z,839.80
2023-01-23T11:50:26.750Z,724.88
2023-01-23T11:56:18.548Z,849.80
2023-01-23T11:58:50.315Z,734.63
2023-01-23T12:01:47.166Z,845.03
2023-01-23T12:04:57.777Z,842.33
2023-01-23T12:54:37.614Z,840.58
2023-01-23T13:00:02.313Z,731.65
2023-01-23T13:02:48.750Z,852.50
2023-01-23T13:05:28.172Z,717.23
2023-01-23T13:11:43.597Z,836.13
2023-01-23T13:15:06.972Z,846.23
2023-01-23T13:17:39.879Z,841.93
2023-01-23T13:27:45.179Z,836.10
2023-01-23T13:30:35.163Z,837.90
2023-01-23T13:33:20.257Z,848.78
2023-01-23T13:35:55.409Z,845.63
2023-01-23T13:38:33.429Z,725.40
2023-01-23T13:41:54.478Z,725.67
2023-01-23T14:23:19.119Z,848.03
2023-01-23T14:25:52.766Z,855.72
2023-01-23T14:28:20.778Z,713.83
2023-01-23T14:31:06.465Z,704.70
2023-01-23T14:33:41.347Z,711.47
2023-01-23T14:36:16.394Z,839.97
2023-01-23T14:38:44.749Z,839.17
2023-01-23T14:41:14.332Z,846.83
2023-01-23T14:43:42.679Z,718.25
2023-01-23T14:46:20.681Z,843.60
2023-01-23T14:48:55.196Z,711.15
2023-01-23T14:51:26.533Z,711.08
2023-01-23T14:53:56.760Z,703.05
2023-01-23T14:56:29.351Z,833.25
2023-01-23T14:58:58.652Z,714.83
2023-01-23T15:01:29.761Z,709.38
2023-01-23T15:03:58.556Z,843.22
2023-01-23T15:06:26.215Z,719.75
2023-01-23T15:08:53.664Z,712.17
2023-01-23T15:11:39.273Z,836.55
2023-01-23T15:14:10.553Z,837.28
2023-01-23T15:16:38.754Z,705.22
2023-01-23T15:19:09.641Z,717.55
2023-01-23T15:21:39.244Z,708.88
2023-01-23T15:24:10.545Z,704.42
2023-01-23T15:26:39.580Z,702.50
2023-01-23T15:29:10.860Z,708.65
2023-01-23T15:31:47.540Z,826.05
2023-01-23T15:34:15.012Z,703.40
2023-01-23T15:36:51.600Z,846.03
2023-01-23T15:39:23.928Z,707.03
2023-01-23T15:41:55.290Z,845.00
2023-01-23T15:44:23.451Z,709.03
2023-01-23T15:46:54.097Z,710.97
2023-01-23T15:49:26.261Z,857.47
2023-01-23T15:51:56.790Z,716.30
2023-01-23T15:57:30.096Z,706.28
2023-01-23T16:00:27.333Z,709.63
2023-01-23T16:03:02.465Z,707.70
2023-01-23T16:05:30.919Z,709.80
2023-01-23T16:08:01.308Z,835.75
2023-01-23T16:10:29.803Z,838.45
2023-01-23T16:12:57.891Z,838.25
2023-01-23T16:15:26.884Z,700.47
2023-01-23T16:17:57.349Z,707.20
2023-01-23T16:20:27.470Z,706.78
2023-01-23T16:23:14.559Z,832.88
2023-01-23T16:25:45.372Z,841.78
2023-01-23T16:28:19.563Z,704.53
2023-01-23T16:30:47.877Z,710.10
2023-01-23T16:33:15.920Z,705.58
2023-01-23T16:35:43.479Z,833.20
2023-01-23T16:38:20.100Z,832.75
2023-01-23T16:40:47.439Z,706.40
2023-01-23T16:43:14.790Z,843.88
2023-01-23T16:45:42.185Z,709.25
2023-01-23T16:48:18.204Z,705.85
2023-01-23T16:50:51.424Z,702.25
2023-01-23T16:53:32.872Z,696.63
2023-01-23T16:56:01.091Z,831.65
2023-01-23T16:58:46.613Z,836.10
2023-01-23T17:01:20.622Z,834.70
2023-01-23T17:04:05.527Z,710.55
2023-01-23T17:06:35.439Z,835.55
2023-01-23T17:09:02.658Z,705.90
2023-01-23T17:11:43.954Z,700.05
2023-01-23T17:14:16.845Z,696.40
2023-01-23T17:16:45.214Z,832.35
2023-01-23T17:19:27.658Z,831.67
2023-01-23T17:25:13.579Z,701.75
2023-01-23T17:27:45.373Z,690.85
2023-01-23T17:30:17.999Z,699.50
2023-01-23T17:32:47.353Z,834.13
2023-01-23T17:35:20.013Z,843.97
2023-01-23T17:37:47.513Z,717.58
2023-01-23T17:40:16.196Z,842.78
2023-01-23T17:42:44.052Z,830.47
2023-01-23T17:45:15.345Z,709.28
2023-01-23T17:47:48.119Z,716.40
2023-01-23T17:50:20.153Z,848.08
2023-01-23T17:52:48.299Z,716.60
2023-01-23T17:55:18.455Z,711.00
2023-01-23T17:57:45.921Z,710.72
2023-01-23T18:00:16.089Z,713.72
2023-01-23T18:02:44.114Z,851.78
2023-01-23T18:05:14.134Z,856.75
2023-01-23T18:07:53.126Z,846.75
2023-01-23T18:10:22.190Z,715.15
2023-01-23T18:12:59.917Z,844.20
2023-01-23T18:15:47.874Z,847.78
2023-01-23T18:18:24.177Z,705.67
2023-01-23T18:20:55.002Z,711.47
2023-01-23T18:23:28.351Z,707.00
2023-01-23T18:26:04.955Z,842.22
2023-01-23T18:28:37.180Z,702.78
2023-01-23T18:31:07.504Z,710.28
2023-01-23T18:33:41.116Z,839.20
2023-01-23T18:36:08.480Z,844.75
2023-01-23T18:38:54.684Z,703.35
2023-01-23T18:41:26.141Z,833.53
2023-01-23T18:43:56.425Z,691.35
2023-01-23T18:46:24.255Z,696.88
2023-01-23T18:48:51.779Z,831.55
2023-01-23T18:51:22.144Z,838.83
2023-01-23T18:53:55.534Z,694.70
2023-01-23T18:56:22.757Z,839.40
2023-01-23T18:59:11.773Z,839.05
2023-01-23T19:01:44.595Z,696.72
2023-01-23T19:04:14.775Z,827.17
2023-01-23T19:06:42.575Z,837.15
2023-01-23T19:09:20.218Z,824.85
2023-01-23T19:11:57.589Z,702.50
2023-01-23T19:14:43.647Z,837.20
2023-01-23T19:17:22.951Z,693.75
2023-01-23T19:19:59.621Z,845.90
2023-01-23T19:22:30.470Z,837.42
2023-01-23T19:24:57.903Z,833.17
2023-01-23T19:27:25.195Z,844.60
2023-01-23T19:29:52.523Z,700.20
2023-01-23T19:32:19.919Z,696.80
2023-01-23T19:34:47.244Z,841.88
2023-01-23T19:37:14.807Z,698.25
2023-01-23T19:39:42.248Z,698.58
2023-01-23T19:42:13.828Z,695.28
2023-01-23T19:44:41.104Z,830.08
2023-01-23T19:47:08.708Z,846.13
2023-01-23T19:49:35.919Z,702.78
2023-01-23T19:52:03.600Z,703.08
2023-01-23T19:54:30.862Z,831.53
2023-01-23T19:56:58.083Z,833.42
2023-01-23T19:59:26.511Z,829.55
2023-01-23T20:01:54.337Z,843.00
2023-01-23T20:04:22.767Z,839.05
2023-01-23T20:06:52.010Z,840.30
2023-01-23T20:09:19.767Z,835.08
2023-01-23T20:11:47.303Z,705.90
2023-01-23T20:14:14.682Z,844.85
2023-01-23T20:16:43.562Z,829.67
2023-01-23T20:19:13.869Z,708.20
2023-01-23T20:21:41.316Z,714.15
2023-01-23T20:24:08.818Z,711.67
2023-01-23T20:26:36.210Z,842.22
2023-01-23T20:29:04.108Z,709.45
2023-01-23T20:31:31.899Z,703.00
2023-01-23T20:33:59.594Z,708.55
2023-01-23T20:36:26.834Z,837.92
2023-01-23T20:38:54.093Z,840.45
2023-01-23T20:41:21.681Z,826.85
2023-01-23T20:43:49.414Z,709.17
2023-01-23T20:46:19.189Z,710.10
2023-01-23T20:48:46.939Z,702.53
2023-01-23T20:51:15.413Z,706.15
2023-01-23T20:53:43.056Z,706.33
2023-01-23T20:56:11.380Z,701.88
2023-01-23T20:59:09.393Z,705.90
2023-01-23T21:01:56.323Z,700.28
2023-01-23T21:04:25.033Z,833.65
2023-01-23T21:06:52.352Z,715.42
2023-01-23T21:09:19.672Z,828.75
2023-01-23T21:11:49.221Z,842.53
2023-01-23T21:14:16.455Z,702.42
2023-01-23T21:16:44.199Z,837.42
2023-01-23T21:19:11.403Z,842.63
2023-01-23T21:21:38.703Z,708.13
2023-01-23T21:24:06.240Z,709.25
2023-01-23T21:26:33.865Z,708.60
2023-01-23T21:29:01.479Z,712.78
2023-01-23T21:31:30.399Z,842.95
2023-01-23T21:34:00.151Z,706.08
2023-01-23T21:36:27.513Z,836.30
2023-01-23T21:38:54.852Z,709.28
2023-01-23T21:41:22.434Z,715.65
2023-01-23T21:43:49.705Z,845.50
2023-01-23T21:46:17.163Z,850.53
2023-01-23T21:48:44.406Z,712.85
2023-01-23T21:51:12.964Z,715.17
2023-01-23T21:53:41.290Z,843.97
2023-01-23T21:56:09.076Z,703.58
2023-01-23T21:58:36.448Z,840.13
2023-01-23T22:01:26.889Z,709.63
2023-01-23T22:03:54.163Z,707.65
2023-01-23T22:06:21.375Z,845.95
2023-01-23T22:08:48.736Z,705.00
2023-01-23T22:11:15.982Z,835.60
2023-01-23T22:13:43.457Z,708.80
2023-01-23T22:16:12.002Z,841.65
2023-01-23T22:18:39.432Z,843.75
2023-01-23T22:21:09.253Z,714.60
2023-01-23T22:23:36.507Z,710.65
2023-01-23T22:26:07.685Z,853.10
2023-01-23T22:28:35.386Z,714.35
2023-01-23T22:31:07.341Z,711.78
2023-01-23T22:33:40.469Z,850.10
2023-01-23T22:36:09.675Z,714.15
2023-01-23T22:38:36.947Z,845.83
2023-01-23T22:41:05.208Z,837.55
2023-01-23T22:43:33.091Z,855.13
2023-01-23T22:46:09.577Z,716.10
2023-01-23T22:48:36.923Z,710.15
2023-01-23T22:51:04.906Z,842.17
2023-01-23T22:53:32.575Z,717.88
2023-01-23T22:55:59.834Z,838.72
2023-01-23T22:58:27.192Z,855.38
2023-01-23T23:00:54.721Z,853.60
2023-01-23T23:03:22.738Z,717.58
2023-01-23T23:05:57.203Z,712.38
2023-01-23T23:08:24.438Z,714.47
2023-01-23T23:11:07.626Z,709.90
2023-01-23T23:13:35.933Z,826.90
2023-01-23T23:16:07.074Z,833.25
2023-01-23T23:18:35.112Z,845.08
2023-01-23T23:21:05.165Z,834.88
2023-01-23T23:23:32.550Z,840.15
2023-01-23T23:25:59.914Z,715.22
2023-01-23T23:28:28.010Z,834.17
2023-01-23T23:30:55.433Z,710.10
2023-01-23T23:33:23.027Z,705.05
2023-01-23T23:35:50.270Z,705.80
2023-01-23T23:38:17.901Z,845.78
2023-01-23T23:40:45.276Z,834.50
2023-01-23T23:43:12.711Z,842.78
2023-01-23T23:45:46.630Z,702.55
2023-01-23T23:48:13.974Z,844.15
2023-01-23T23:50:43.297Z,836.03
2023-01-23T23:53:10.543Z,836.53
2023-01-23T23:55:37.895Z,707.38
2023-01-23T23:58:05.229Z,709.55
